sensor_id;sensor_type;location;lat;lon;timestamp;P1;durP1;ratioP1;P2;durP2;ratioP2
13374;SDS011;6756;51.354;15.754;2023-01-19T00:02:01;10.53;;;7.47;;
13374;SDS011;6756;51.354;15.754;2023-01-19T00:06:05;10.60;;;6.87;;
13374;SDS011;6756;51.354;15.754;2023-01-19T00:10:07;9.80;;;6.27;;
13374;SDS011;6756;51.354;15.754;2023-01-19T00:14:09;11.27;;;7.30;;
13374;SDS011;6756;51.354;15.754;2023-01-19T00:18:09;9.93;;;6.00;;
13374;SDS011;6756;51.354;15.754;2023-01-19T00:22:10;11.10;;;6.00;;
13374;SDS011;6756;51.354;15.754;2023-01-19T00:26:12;10.10;;;6.80;;
13374;SDS011;6756;51.354;15.754;2023-01-19T00:30:16;9.03;;;6.47;;
13374;SDS011;6756;51.354;15.754;2023-01-19T00:34:17;8.13;;;6.07;;
13374;SDS011;6756;51.354;15.754;2023-01-19T00:38:17;8.40;;;5.93;;
13374;SDS011;6756;51.354;15.754;2023-01-19T00:42:18;8.77;;;5.93;;
13374;SDS011;6756;51.354;15.754;2023-01-19T00:46:37;7.17;;;5.17;;
13374;SDS011;6756;51.354;15.754;2023-01-19T00:50:38;8.20;;;5.97;;
13374;SDS011;6756;51.354;15.754;2023-01-19T00:54:39;8.57;;;6.67;;
13374;SDS011;6756;51.354;15.754;2023-01-19T00:58:40;9.40;;;6.20;;
13374;SDS011;6756;51.354;15.754;2023-01-19T01:02:41;8.83;;;6.20;;
13374;SDS011;6756;51.354;15.754;2023-01-19T01:06:43;10.23;;;7.07;;
13374;SDS011;6756;51.354;15.754;2023-01-19T01:10:44;8.40;;;5.93;;
13374;SDS011;6756;51.354;15.754;2023-01-19T01:14:44;8.57;;;6.40;;
13374;SDS011;6756;51.354;15.754;2023-01-19T01:18:45;8.97;;;6.20;;
13374;SDS011;6756;51.354;15.754;2023-01-19T01:22:47;8.63;;;5.97;;
13374;SDS011;6756;51.354;15.754;2023-01-19T01:26:50;7.43;;;6.17;;
13374;SDS011;6756;51.354;15.754;2023-01-19T01:30:54;8.80;;;6.33;;
13374;SDS011;6756;51.354;15.754;2023-01-19T01:34:56;11.07;;;7.50;;
13374;SDS011;6756;51.354;15.754;2023-01-19T01:38:57;8.67;;;6.40;;
13374;SDS011;6756;51.354;15.754;2023-01-19T01:42:57;9.60;;;6.40;;
13374;SDS011;6756;51.354;15.754;2023-01-19T01:46:58;8.43;;;5.97;;
13374;SDS011;6756;51.354;15.754;2023-01-19T01:51:01;11.57;;;6.83;;
13374;SDS011;6756;51.354;15.754;2023-01-19T01:55:25;7.97;;;6.20;;
13374;SDS011;6756;51.354;15.754;2023-01-19T01:59:28;10.60;;;6.30;;
13374;SDS011;6756;51.354;15.754;2023-01-19T02:03:38;9.10;;;6.17;;
13374;SDS011;6756;51.354;15.754;2023-01-19T02:07:41;8.83;;;5.53;;
13374;SDS011;6756;51.354;15.754;2023-01-19T02:12:12;5.43;;;4.60;;
13374;SDS011;6756;51.354;15.754;2023-01-19T02:16:32;6.10;;;4.80;;
13374;SDS011;6756;51.354;15.754;2023-01-19T02:20:34;5.10;;;4.13;;
13374;SDS011;6756;51.354;15.754;2023-01-19T02:24:36;6.67;;;4.63;;
13374;SDS011;6756;51.354;15.754;2023-01-19T02:28:38;7.30;;;5.10;;
13374;SDS011;6756;51.354;15.754;2023-01-19T02:32:45;6.70;;;4.37;;
13374;SDS011;6756;51.354;15.754;2023-01-19T02:37:00;5.47;;;4.10;;
13374;SDS011;6756;51.354;15.754;2023-01-19T02:41:06;4.90;;;3.73;;
13374;SDS011;6756;51.354;15.754;2023-01-19T02:45:11;5.37;;;3.67;;
13374;SDS011;6756;51.354;15.754;2023-01-19T02:49:13;4.67;;;3.53;;
13374;SDS011;6756;51.354;15.754;2023-01-19T02:57:40;5.93;;;3.87;;
13374;SDS011;6756;51.354;15.754;2023-01-19T03:05:54;6.83;;;4.60;;
13374;SDS011;6756;51.354;15.754;2023-01-19T03:10:11;6.40;;;4.70;;
13374;SDS011;6756;51.354;15.754;2023-01-19T03:14:33;5.93;;;4.43;;
13374;SDS011;6756;51.354;15.754;2023-01-19T03:18:39;7.13;;;5.17;;
13374;SDS011;6756;51.354;15.754;2023-01-19T03:22:46;7.50;;;5.03;;
13374;SDS011;6756;51.354;15.754;2023-01-19T03:26:53;9.30;;;6.13;;
13374;SDS011;6756;51.354;15.754;2023-01-19T03:31:13;9.47;;;5.73;;
13374;SDS011;6756;51.354;15.754;2023-01-19T03:35:17;7.87;;;5.50;;
13374;SDS011;6756;51.354;15.754;2023-01-19T03:39:22;8.47;;;5.57;;
13374;SDS011;6756;51.354;15.754;2023-01-19T03:43:24;8.13;;;5.43;;
13374;SDS011;6756;51.354;15.754;2023-01-19T03:47:26;5.53;;;4.83;;
13374;SDS011;6756;51.354;15.754;2023-01-19T03:51:28;6.67;;;4.40;;
13374;SDS011;6756;51.354;15.754;2023-01-19T03:55:29;7.00;;;4.73;;
13374;SDS011;6756;51.354;15.754;2023-01-19T03:59:30;6.63;;;4.37;;
13374;SDS011;6756;51.354;15.754;2023-01-19T04:03:31;6.23;;;4.93;;
13374;SDS011;6756;51.354;15.754;2023-01-19T04:07:31;6.17;;;4.03;;
13374;SDS011;6756;51.354;15.754;2023-01-19T04:11:32;8.97;;;4.80;;
13374;SDS011;6756;51.354;15.754;2023-01-19T04:15:33;5.87;;;4.40;;
13374;SDS011;6756;51.354;15.754;2023-01-19T04:19:34;7.83;;;5.67;;
13374;SDS011;6756;51.354;15.754;2023-01-19T04:23:35;11.20;;;5.33;;
13374;SDS011;6756;51.354;15.754;2023-01-19T04:27:36;9.00;;;5.47;;
13374;SDS011;6756;51.354;15.754;2023-01-19T04:31:37;10.77;;;6.33;;
13374;SDS011;6756;51.354;15.754;2023-01-19T04:35:37;12.77;;;7.30;;
13374;SDS011;6756;51.354;15.754;2023-01-19T04:39:38;11.23;;;6.47;;
13374;SDS011;6756;51.354;15.754;2023-01-19T04:43:39;11.07;;;6.27;;
13374;SDS011;6756;51.354;15.754;2023-01-19T04:47:40;10.17;;;6.53;;
13374;SDS011;6756;51.354;15.754;2023-01-19T04:51:43;17.30;;;6.63;;
13374;SDS011;6756;51.354;15.754;2023-01-19T04:55:44;9.53;;;6.23;;
13374;SDS011;6756;51.354;15.754;2023-01-19T04:59:45;12.90;;;7.20;;
13374;SDS011;6756;51.354;15.754;2023-01-19T05:03:46;9.90;;;6.07;;
13374;SDS011;6756;51.354;15.754;2023-01-19T05:07:47;9.07;;;6.13;;
13374;SDS011;6756;51.354;15.754;2023-01-19T05:11:48;12.80;;;7.63;;
13374;SDS011;6756;51.354;15.754;2023-01-19T05:15:48;11.90;;;7.63;;
13374;SDS011;6756;51.354;15.754;2023-01-19T05:19:49;10.67;;;6.90;;
13374;SDS011;6756;51.354;15.754;2023-01-19T05:23:50;10.47;;;5.87;;
13374;SDS011;6756;51.354;15.754;2023-01-19T05:27:51;10.37;;;6.23;;
13374;SDS011;6756;51.354;15.754;2023-01-19T05:31:52;9.30;;;5.90;;
13374;SDS011;6756;51.354;15.754;2023-01-19T05:35:53;8.03;;;5.93;;
13374;SDS011;6756;51.354;15.754;2023-01-19T05:39:54;10.67;;;6.33;;
13374;SDS011;6756;51.354;15.754;2023-01-19T05:43:54;12.33;;;7.07;;
13374;SDS011;6756;51.354;15.754;2023-01-19T05:47:55;14.23;;;7.37;;
13374;SDS011;6756;51.354;15.754;2023-01-19T05:51:56;14.57;;;7.53;;
13374;SDS011;6756;51.354;15.754;2023-01-19T05:56:01;11.63;;;7.13;;
13374;SDS011;6756;51.354;15.754;2023-01-19T06:00:04;13.13;;;7.73;;
13374;SDS011;6756;51.354;15.754;2023-01-19T06:04:05;11.57;;;6.73;;
13374;SDS011;6756;51.354;15.754;2023-01-19T06:08:06;10.23;;;7.53;;
13374;SDS011;6756;51.354;15.754;2023-01-19T06:12:07;13.03;;;6.67;;
13374;SDS011;6756;51.354;15.754;2023-01-19T06:16:08;11.67;;;8.20;;
13374;SDS011;6756;51.354;15.754;2023-01-19T06:20:10;14.20;;;8.87;;
13374;SDS011;6756;51.354;15.754;2023-01-19T06:24:13;16.43;;;8.27;;
13374;SDS011;6756;51.354;15.754;2023-01-19T06:28:14;13.83;;;8.80;;
13374;SDS011;6756;51.354;15.754;2023-01-19T06:32:14;14.73;;;8.30;;
13374;SDS011;6756;51.354;15.754;2023-01-19T06:36:16;14.63;;;8.80;;
13374;SDS011;6756;51.354;15.754;2023-01-19T06:40:17;15.40;;;7.50;;
13374;SDS011;6756;51.354;15.754;2023-01-19T06:44:18;16.00;;;8.87;;
13374;SDS011;6756;51.354;15.754;2023-01-19T06:48:18;14.10;;;7.63;;
13374;SDS011;6756;51.354;15.754;2023-01-19T06:52:19;14.83;;;8.17;;
13374;SDS011;6756;51.354;15.754;2023-01-19T06:56:20;13.47;;;7.63;;
13374;SDS011;6756;51.354;15.754;2023-01-19T07:00:21;15.00;;;8.03;;
13374;SDS011;6756;51.354;15.754;2023-01-19T07:04:23;18.43;;;8.90;;
13374;SDS011;6756;51.354;15.754;2023-01-19T07:08:24;16.90;;;10.50;;
13374;SDS011;6756;51.354;15.754;2023-01-19T07:12:25;16.33;;;8.20;;
13374;SDS011;6756;51.354;15.754;2023-01-19T07:16:26;14.83;;;8.63;;
13374;SDS011;6756;51.354;15.754;2023-01-19T07:20:26;13.30;;;8.43;;
13374;SDS011;6756;51.354;15.754;2023-01-19T07:24:27;16.17;;;8.63;;
13374;SDS011;6756;51.354;15.754;2023-01-19T07:28:33;14.70;;;8.73;;
13374;SDS011;6756;51.354;15.754;2023-01-19T07:32:34;13.50;;;7.67;;
13374;SDS011;6756;51.354;15.754;2023-01-19T07:36:37;14.07;;;7.97;;
13374;SDS011;6756;51.354;15.754;2023-01-19T07:40:38;10.53;;;7.67;;
13374;SDS011;6756;51.354;15.754;2023-01-19T07:44:39;12.80;;;7.47;;
13374;SDS011;6756;51.354;15.754;2023-01-19T07:48:40;12.53;;;7.60;;
13374;SDS011;6756;51.354;15.754;2023-01-19T07:52:43;14.40;;;7.87;;
13374;SDS011;6756;51.354;15.754;2023-01-19T07:56:44;14.57;;;8.03;;
13374;SDS011;6756;51.354;15.754;2023-01-19T08:00:45;14.43;;;7.97;;
13374;SDS011;6756;51.354;15.754;2023-01-19T08:04:48;15.20;;;8.57;;
13374;SDS011;6756;51.354;15.754;2023-01-19T08:08:49;17.87;;;9.10;;
13374;SDS011;6756;51.354;15.754;2023-01-19T08:12:51;23.50;;;11.33;;
13374;SDS011;6756;51.354;15.754;2023-01-19T08:16:52;21.60;;;10.93;;
13374;SDS011;6756;51.354;15.754;2023-01-19T08:20:53;17.87;;;9.60;;
13374;SDS011;6756;51.354;15.754;2023-01-19T08:24:54;16.17;;;8.93;;
13374;SDS011;6756;51.354;15.754;2023-01-19T08:28:56;17.33;;;7.57;;
13374;SDS011;6756;51.354;15.754;2023-01-19T08:32:58;10.10;;;7.33;;
13374;SDS011;6756;51.354;15.754;2023-01-19T08:37:07;13.07;;;8.00;;
13374;SDS011;6756;51.354;15.754;2023-01-19T08:41:08;12.00;;;7.40;;
13374;SDS011;6756;51.354;15.754;2023-01-19T08:45:09;11.50;;;7.73;;
13374;SDS011;6756;51.354;15.754;2023-01-19T08:49:10;14.30;;;8.40;;
13374;SDS011;6756;51.354;15.754;2023-01-19T08:53:11;19.00;;;8.97;;
13374;SDS011;6756;51.354;15.754;2023-01-19T08:57:12;18.90;;;9.13;;
13374;SDS011;6756;51.354;15.754;2023-01-19T09:01:14;15.47;;;9.80;;
13374;SDS011;6756;51.354;15.754;2023-01-19T09:05:19;14.93;;;8.90;;
13374;SDS011;6756;51.354;15.754;2023-01-19T09:09:20;13.13;;;7.87;;
13374;SDS011;6756;51.354;15.754;2023-01-19T09:13:20;18.17;;;10.03;;
13374;SDS011;6756;51.354;15.754;2023-01-19T09:17:21;10.67;;;7.73;;
13374;SDS011;6756;51.354;15.754;2023-01-19T09:21:23;12.70;;;8.37;;
13374;SDS011;6756;51.354;15.754;2023-01-19T09:25:23;13.07;;;8.57;;
13374;SDS011;6756;51.354;15.754;2023-01-19T09:29:24;14.00;;;8.90;;
13374;SDS011;6756;51.354;15.754;2023-01-19T09:33:25;13.20;;;8.13;;
13374;SDS011;6756;51.354;15.754;2023-01-19T09:37:26;13.63;;;8.77;;
13374;SDS011;6756;51.354;15.754;2023-01-19T09:41:27;15.50;;;8.17;;
13374;SDS011;6756;51.354;15.754;2023-01-19T09:45:34;13.40;;;9.07;;
13374;SDS011;6756;51.354;15.754;2023-01-19T09:49:38;15.77;;;8.77;;
13374;SDS011;6756;51.354;15.754;2023-01-19T09:58:11;10.13;;;7.23;;
13374;SDS011;6756;51.354;15.754;2023-01-19T10:02:21;17.07;;;8.20;;
13374;SDS011;6756;51.354;15.754;2023-01-19T10:06:27;12.27;;;7.57;;
13374;SDS011;6756;51.354;15.754;2023-01-19T10:10:31;15.57;;;7.43;;
13374;SDS011;6756;51.354;15.754;2023-01-19T10:14:35;15.00;;;8.57;;
13374;SDS011;6756;51.354;15.754;2023-01-19T10:18:43;13.03;;;7.50;;
13374;SDS011;6756;51.354;15.754;2023-01-19T10:22:50;14.17;;;8.37;;
13374;SDS011;6756;51.354;15.754;2023-01-19T10:26:54;15.83;;;7.87;;
13374;SDS011;6756;51.354;15.754;2023-01-19T10:30:56;12.80;;;7.70;;
13374;SDS011;6756;51.354;15.754;2023-01-19T10:34:57;13.80;;;7.73;;
13374;SDS011;6756;51.354;15.754;2023-01-19T10:38:59;10.47;;;7.00;;
13374;SDS011;6756;51.354;15.754;2023-01-19T10:42:59;9.83;;;6.40;;
13374;SDS011;6756;51.354;15.754;2023-01-19T10:47:00;11.10;;;6.40;;
13374;SDS011;6756;51.354;15.754;2023-01-19T10:51:03;7.90;;;5.40;;
13374;SDS011;6756;51.354;15.754;2023-01-19T10:55:06;9.27;;;5.30;;
13374;SDS011;6756;51.354;15.754;2023-01-19T10:59:28;8.47;;;5.50;;
13374;SDS011;6756;51.354;15.754;2023-01-19T11:03:56;8.80;;;4.70;;
13374;SDS011;6756;51.354;15.754;2023-01-19T11:08:15;7.13;;;4.43;;
13374;SDS011;6756;51.354;15.754;2023-01-19T11:12:22;11.70;;;4.50;;
13374;SDS011;6756;51.354;15.754;2023-01-19T11:25:24;5.83;;;4.30;;
13374;SDS011;6756;51.354;15.754;2023-01-19T11:29:30;7.03;;;4.47;;
13374;SDS011;6756;51.354;15.754;2023-01-19T11:33:50;6.83;;;4.93;;
13374;SDS011;6756;51.354;15.754;2023-01-19T11:38:03;8.47;;;4.77;;
13374;SDS011;6756;51.354;15.754;2023-01-19T11:42:10;11.77;;;6.43;;
13374;SDS011;6756;51.354;15.754;2023-01-19T11:46:12;11.47;;;5.27;;
13374;SDS011;6756;51.354;15.754;2023-01-19T11:54:31;8.77;;;5.47;;
13374;SDS011;6756;51.354;15.754;2023-01-19T11:58:39;8.27;;;5.03;;
13374;SDS011;6756;51.354;15.754;2023-01-19T12:02:45;9.63;;;5.03;;
13374;SDS011;6756;51.354;15.754;2023-01-19T12:06:50;6.67;;;4.53;;
13374;SDS011;6756;51.354;15.754;2023-01-19T12:10:54;8.47;;;5.00;;
13374;SDS011;6756;51.354;15.754;2023-01-19T12:15:04;7.47;;;4.83;;
13374;SDS011;6756;51.354;15.754;2023-01-19T12:19:28;8.27;;;5.20;;
13374;SDS011;6756;51.354;15.754;2023-01-19T12:27:52;8.50;;;4.73;;
13374;SDS011;6756;51.354;15.754;2023-01-19T12:40:26;7.67;;;4.33;;
13374;SDS011;6756;51.354;15.754;2023-01-19T12:44:29;8.67;;;3.87;;
13374;SDS011;6756;51.354;15.754;2023-01-19T12:48:33;5.03;;;3.50;;
13374;SDS011;6756;51.354;15.754;2023-01-19T12:56:40;6.73;;;4.00;;
13374;SDS011;6756;51.354;15.754;2023-01-19T13:00:41;7.73;;;4.30;;
13374;SDS011;6756;51.354;15.754;2023-01-19T13:09:34;6.07;;;4.03;;
13374;SDS011;6756;51.354;15.754;2023-01-19T13:17:57;7.40;;;3.93;;
13374;SDS011;6756;51.354;15.754;2023-01-19T13:22:47;5.93;;;3.87;;
13374;SDS011;6756;51.354;15.754;2023-01-19T13:30:59;6.07;;;3.83;;
13374;SDS011;6756;51.354;15.754;2023-01-19T13:35:01;7.00;;;4.17;;
13374;SDS011;6756;51.354;15.754;2023-01-19T13:39:05;7.70;;;4.00;;
13374;SDS011;6756;51.354;15.754;2023-01-19T13:43:20;6.07;;;3.63;;
13374;SDS011;6756;51.354;15.754;2023-01-19T13:47:47;7.10;;;3.80;;
13374;SDS011;6756;51.354;15.754;2023-01-19T13:52:10;6.07;;;3.73;;
13374;SDS011;6756;51.354;15.754;2023-01-19T13:56:18;8.70;;;4.60;;
13374;SDS011;6756;51.354;15.754;2023-01-19T14:00:22;6.23;;;3.70;;
13374;SDS011;6756;51.354;15.754;2023-01-19T14:04:31;4.23;;;3.07;;
13374;SDS011;6756;51.354;15.754;2023-01-19T14:08:33;4.77;;;2.97;;
13374;SDS011;6756;51.354;15.754;2023-01-19T14:12:33;6.10;;;3.03;;
13374;SDS011;6756;51.354;15.754;2023-01-19T14:16:34;4.40;;;3.37;;
13374;SDS011;6756;51.354;15.754;2023-01-19T14:20:35;4.83;;;3.27;;
13374;SDS011;6756;51.354;15.754;2023-01-19T14:24:37;4.73;;;3.20;;
13374;SDS011;6756;51.354;15.754;2023-01-19T14:28:42;6.17;;;3.40;;
13374;SDS011;6756;51.354;15.754;2023-01-19T14:32:43;5.50;;;3.40;;
13374;SDS011;6756;51.354;15.754;2023-01-19T14:36:46;6.93;;;3.80;;
13374;SDS011;6756;51.354;15.754;2023-01-19T14:40:50;4.70;;;3.03;;
13374;SDS011;6756;51.354;15.754;2023-01-19T14:44:52;4.87;;;3.07;;
13374;SDS011;6756;51.354;15.754;2023-01-19T14:48:57;6.50;;;3.33;;
13374;SDS011;6756;51.354;15.754;2023-01-19T14:53:18;5.57;;;3.23;;
13374;SDS011;6756;51.354;15.754;2023-01-19T14:57:20;6.13;;;2.77;;
13374;SDS011;6756;51.354;15.754;2023-01-19T15:01:22;7.37;;;3.90;;
13374;SDS011;6756;51.354;15.754;2023-01-19T15:05:24;4.57;;;2.87;;
13374;SDS011;6756;51.354;15.754;2023-01-19T15:09:25;6.77;;;3.57;;
13374;SDS011;6756;51.354;15.754;2023-01-19T15:13:26;7.03;;;3.40;;
13374;SDS011;6756;51.354;15.754;2023-01-19T15:17:27;6.83;;;3.93;;
13374;SDS011;6756;51.354;15.754;2023-01-19T15:21:28;9.63;;;4.27;;
13374;SDS011;6756;51.354;15.754;2023-01-19T15:25:29;6.90;;;4.43;;
13374;SDS011;6756;51.354;15.754;2023-01-19T15:29:30;7.00;;;4.00;;
13374;SDS011;6756;51.354;15.754;2023-01-19T15:33:31;15.73;;;9.33;;
13374;SDS011;6756;51.354;15.754;2023-01-19T15:37:33;26.43;;;14.40;;
13374;SDS011;6756;51.354;15.754;2023-01-19T15:41:36;25.97;;;14.60;;
13374;SDS011;6756;51.354;15.754;2023-01-19T15:45:56;23.70;;;12.50;;
13374;SDS011;6756;51.354;15.754;2023-01-19T15:49:59;16.33;;;10.57;;
13374;SDS011;6756;51.354;15.754;2023-01-19T15:54:00;12.73;;;7.00;;
13374;SDS011;6756;51.354;15.754;2023-01-19T15:58:00;19.23;;;10.50;;
13374;SDS011;6756;51.354;15.754;2023-01-19T16:02:02;18.63;;;10.07;;
13374;SDS011;6756;51.354;15.754;2023-01-19T16:06:04;17.20;;;8.70;;
13374;SDS011;6756;51.354;15.754;2023-01-19T16:10:06;10.07;;;6.23;;
13374;SDS011;6756;51.354;15.754;2023-01-19T16:14:08;9.00;;;5.83;;
13374;SDS011;6756;51.354;15.754;2023-01-19T16:18:09;8.17;;;5.07;;
13374;SDS011;6756;51.354;15.754;2023-01-19T16:22:10;7.90;;;4.23;;
13374;SDS011;6756;51.354;15.754;2023-01-19T16:30:33;8.17;;;4.27;;
13374;SDS011;6756;51.354;15.754;2023-01-19T16:34:34;15.87;;;7.97;;
13374;SDS011;6756;51.354;15.754;2023-01-19T16:38:35;15.70;;;9.30;;
13374;SDS011;6756;51.354;15.754;2023-01-19T16:42:35;16.63;;;8.70;;
13374;SDS011;6756;51.354;15.754;2023-01-19T16:46:37;19.27;;;9.07;;
13374;SDS011;6756;51.354;15.754;2023-01-19T16:50:40;12.03;;;6.93;;
13374;SDS011;6756;51.354;15.754;2023-01-19T16:54:41;7.40;;;4.30;;
13374;SDS011;6756;51.354;15.754;2023-01-19T16:58:42;7.50;;;3.93;;
13374;SDS011;6756;51.354;15.754;2023-01-19T17:02:43;7.63;;;4.53;;
13374;SDS011;6756;51.354;15.754;2023-01-19T17:06:44;9.60;;;4.73;;
13374;SDS011;6756;51.354;15.754;2023-01-19T17:10:46;10.67;;;5.20;;
13374;SDS011;6756;51.354;15.754;2023-01-19T17:14:47;11.33;;;5.00;;
13374;SDS011;6756;51.354;15.754;2023-01-19T17:18:48;9.23;;;5.47;;
13374;SDS011;6756;51.354;15.754;2023-01-19T17:22:49;12.13;;;5.57;;
13374;SDS011;6756;51.354;15.754;2023-01-19T17:26:50;10.80;;;5.13;;
13374;SDS011;6756;51.354;15.754;2023-01-19T17:30:52;10.00;;;5.67;;
13374;SDS011;6756;51.354;15.754;2023-01-19T17:34:53;12.70;;;6.40;;
13374;SDS011;6756;51.354;15.754;2023-01-19T17:38:55;11.53;;;6.13;;
13374;SDS011;6756;51.354;15.754;2023-01-19T17:42:57;14.27;;;6.60;;
13374;SDS011;6756;51.354;15.754;2023-01-19T17:46:57;13.53;;;6.97;;
13374;SDS011;6756;51.354;15.754;2023-01-19T17:51:02;15.43;;;7.03;;
13374;SDS011;6756;51.354;15.754;2023-01-19T17:55:05;19.10;;;7.27;;
13374;SDS011;6756;51.354;15.754;2023-01-19T17:59:06;11.53;;;6.83;;
13374;SDS011;6756;51.354;15.754;2023-01-19T18:03:07;13.77;;;6.57;;
13374;SDS011;6756;51.354;15.754;2023-01-19T18:07:08;14.43;;;7.20;;
13374;SDS011;6756;51.354;15.754;2023-01-19T18:11:09;13.63;;;8.07;;
13374;SDS011;6756;51.354;15.754;2023-01-19T18:15:10;13.53;;;6.67;;
13374;SDS011;6756;51.354;15.754;2023-01-19T18:19:12;12.17;;;6.03;;
13374;SDS011;6756;51.354;15.754;2023-01-19T18:23:13;13.60;;;6.93;;
13374;SDS011;6756;51.354;15.754;2023-01-19T18:27:14;14.83;;;7.30;;
13374;SDS011;6756;51.354;15.754;2023-01-19T18:31:16;13.93;;;7.40;;
13374;SDS011;6756;51.354;15.754;2023-01-19T18:35:17;16.77;;;7.73;;
13374;SDS011;6756;51.354;15.754;2023-01-19T18:39:18;15.10;;;7.50;;
13374;SDS011;6756;51.354;15.754;2023-01-19T18:43:19;15.23;;;7.57;;
13374;SDS011;6756;51.354;15.754;2023-01-19T18:47:20;14.17;;;7.73;;
13374;SDS011;6756;51.354;15.754;2023-01-19T18:51:21;14.43;;;7.63;;
13374;SDS011;6756;51.354;15.754;2023-01-19T18:55:22;14.03;;;8.13;;
13374;SDS011;6756;51.354;15.754;2023-01-19T18:59:23;15.23;;;8.17;;
13374;SDS011;6756;51.354;15.754;2023-01-19T19:03:24;22.27;;;9.03;;
13374;SDS011;6756;51.354;15.754;2023-01-19T19:07:27;17.63;;;8.80;;
13374;SDS011;6756;51.354;15.754;2023-01-19T19:11:28;16.97;;;8.83;;
13374;SDS011;6756;51.354;15.754;2023-01-19T19:15:30;19.60;;;9.60;;
13374;SDS011;6756;51.354;15.754;2023-01-19T19:19:32;18.90;;;9.23;;
13374;SDS011;6756;51.354;15.754;2023-01-19T19:23:33;18.60;;;10.57;;
13374;SDS011;6756;51.354;15.754;2023-01-19T19:27:34;20.93;;;10.83;;
13374;SDS011;6756;51.354;15.754;2023-01-19T19:31:36;26.07;;;11.77;;
13374;SDS011;6756;51.354;15.754;2023-01-19T19:35:36;20.07;;;10.33;;
13374;SDS011;6756;51.354;15.754;2023-01-19T19:39:37;21.00;;;11.20;;
13374;SDS011;6756;51.354;15.754;2023-01-19T19:43:38;23.10;;;11.50;;
13374;SDS011;6756;51.354;15.754;2023-01-19T19:47:39;26.30;;;11.90;;
13374;SDS011;6756;51.354;15.754;2023-01-19T19:51:41;21.47;;;10.57;;
13374;SDS011;6756;51.354;15.754;2023-01-19T19:55:43;19.40;;;10.73;;
13374;SDS011;6756;51.354;15.754;2023-01-19T19:59:43;19.20;;;10.97;;
13374;SDS011;6756;51.354;15.754;2023-01-19T20:03:44;19.00;;;10.30;;
13374;SDS011;6756;51.354;15.754;2023-01-19T20:07:45;20.40;;;11.60;;
13374;SDS011;6756;51.354;15.754;2023-01-19T20:11:47;17.03;;;9.93;;
13374;SDS011;6756;51.354;15.754;2023-01-19T20:15:48;18.70;;;10.27;;
13374;SDS011;6756;51.354;15.754;2023-01-19T20:19:49;18.53;;;9.33;;
13374;SDS011;6756;51.354;15.754;2023-01-19T20:23:50;18.47;;;9.93;;
13374;SDS011;6756;51.354;15.754;2023-01-19T20:27:52;19.30;;;10.13;;
13374;SDS011;6756;51.354;15.754;2023-01-19T20:31:54;17.77;;;9.47;;
13374;SDS011;6756;51.354;15.754;2023-01-19T20:35:55;18.17;;;9.23;;
13374;SDS011;6756;51.354;15.754;2023-01-19T20:39:56;22.03;;;9.33;;
13374;SDS011;6756;51.354;15.754;2023-01-19T20:43:57;17.60;;;9.03;;
13374;SDS011;6756;51.354;15.754;2023-01-19T20:47:58;14.07;;;7.97;;
13374;SDS011;6756;51.354;15.754;2023-01-19T20:51:59;14.30;;;8.47;;
13374;SDS011;6756;51.354;15.754;2023-01-19T20:56:04;17.77;;;9.63;;
13374;SDS011;6756;51.354;15.754;2023-01-19T21:00:12;14.00;;;8.70;;
13374;SDS011;6756;51.354;15.754;2023-01-19T21:04:13;16.93;;;9.00;;
13374;SDS011;6756;51.354;15.754;2023-01-19T21:08:16;14.03;;;9.03;;
13374;SDS011;6756;51.354;15.754;2023-01-19T21:12:17;13.47;;;8.17;;
13374;SDS011;6756;51.354;15.754;2023-01-19T21:16:19;16.27;;;9.30;;
13374;SDS011;6756;51.354;15.754;2023-01-19T21:20:25;17.07;;;8.97;;
13374;SDS011;6756;51.354;15.754;2023-01-19T21:24:28;18.93;;;9.47;;
13374;SDS011;6756;51.354;15.754;2023-01-19T21:28:29;20.30;;;9.17;;
13374;SDS011;6756;51.354;15.754;2023-01-19T21:32:30;19.07;;;10.80;;
13374;SDS011;6756;51.354;15.754;2023-01-19T21:36:31;17.40;;;9.20;;
13374;SDS011;6756;51.354;15.754;2023-01-19T21:40:32;19.57;;;9.53;;
13374;SDS011;6756;51.354;15.754;2023-01-19T21:44:35;16.70;;;8.57;;
13374;SDS011;6756;51.354;15.754;2023-01-19T21:48:36;14.07;;;8.43;;
13374;SDS011;6756;51.354;15.754;2023-01-19T21:52:37;17.47;;;10.27;;
13374;SDS011;6756;51.354;15.754;2023-01-19T21:56:39;15.43;;;9.30;;
13374;SDS011;6756;51.354;15.754;2023-01-19T22:00:42;16.10;;;8.73;;
13374;SDS011;6756;51.354;15.754;2023-01-19T22:04:44;16.50;;;9.77;;
13374;SDS011;6756;51.354;15.754;2023-01-19T22:08:44;18.33;;;10.10;;
13374;SDS011;6756;51.354;15.754;2023-01-19T22:12:46;16.57;;;8.87;;
13374;SDS011;6756;51.354;15.754;2023-01-19T22:16:47;17.77;;;8.87;;
13374;SDS011;6756;51.354;15.754;2023-01-19T22:20:47;14.67;;;8.77;;
13374;SDS011;6756;51.354;15.754;2023-01-19T22:24:49;16.10;;;7.97;;
13374;SDS011;6756;51.354;15.754;2023-01-19T22:28:53;16.73;;;9.77;;
13374;SDS011;6756;51.354;15.754;2023-01-19T22:32:55;16.53;;;9.20;;
13374;SDS011;6756;51.354;15.754;2023-01-19T22:36:56;17.53;;;9.87;;
13374;SDS011;6756;51.354;15.754;2023-01-19T22:40:56;19.17;;;10.17;;
13374;SDS011;6756;51.354;15.754;2023-01-19T22:44:57;17.80;;;10.87;;
13374;SDS011;6756;51.354;15.754;2023-01-19T22:48:58;15.93;;;9.73;;
13374;SDS011;6756;51.354;15.754;2023-01-19T22:52:59;16.20;;;9.87;;
13374;SDS011;6756;51.354;15.754;2023-01-19T22:57:00;16.47;;;9.60;;
13374;SDS011;6756;51.354;15.754;2023-01-19T23:01:05;14.10;;;9.53;;
13374;SDS011;6756;51.354;15.754;2023-01-19T23:05:07;16.03;;;8.37;;
13374;SDS011;6756;51.354;15.754;2023-01-19T23:09:12;15.33;;;7.90;;
13374;SDS011;6756;51.354;15.754;2023-01-19T23:13:13;13.37;;;7.60;;
13374;SDS011;6756;51.354;15.754;2023-01-19T23:17:14;14.80;;;8.00;;
13374;SDS011;6756;51.354;15.754;2023-01-19T23:21:16;14.00;;;8.50;;
13374;SDS011;6756;51.354;15.754;2023-01-19T23:25:18;14.73;;;8.13;;
13374;SDS011;6756;51.354;15.754;2023-01-19T23:29:19;17.43;;;8.07;;
13374;SDS011;6756;51.354;15.754;2023-01-19T23:33:20;15.57;;;8.93;;
13374;SDS011;6756;51.354;15.754;2023-01-19T23:37:20;19.03;;;9.67;;
13374;SDS011;6756;51.354;15.754;2023-01-19T23:41:22;21.03;;;11.03;;
13374;SDS011;6756;51.354;15.754;2023-01-19T23:45:23;19.13;;;10.67;;
13374;SDS011;6756;51.354;15.754;2023-01-19T23:49:24;16.50;;;8.37;;
13374;SDS011;6756;51.354;15.754;2023-01-19T23:53:25;16.03;;;8.97;;
13374;SDS011;6756;51.354;15.754;2023-01-19T23:57:26;16.87;;;8.73;;
